Bellevue, WA

9:18 PM PST on February 12, 2016 (GMT -0800)
Redwood Estates | | Change Station
CLOSE
Current Station
Personal Weather Station
Location: Bellevue, WA
Elevation: 260 ft
Nearby Weather Stations

Elev 260 ft 47.64 °N, 122.12 °W | Updated 2 minutes ago

Overcast
Overcast
49.8 °F
Feels Like 49.8 °F
N
0.0
Wind Variable Wind from ESE
Gusts 3.0 mph

Today
High -- | Low -- °F
--% Chance of Precip.
Yesterday
High -- | Low -- °F
Precip. -- in
Pressure 30.19 in
Visibility 10.0 miles
Clouds Few 2900 ft
Overcast 8000 ft
Dew Point 35.6 °F
Humidity 59%
Rainfall Not available.
Snow Depth Not available.
7:19 AM 5:26 PM
Waxing Crescent, 27% visible
METAR KRNT 130453Z AUTO 13003KT 10SM FEW029 OVC080 11/07 A3017 RMK AO2 SLP223 T01110072
Pressure 30.19 in
Visibility 10.0 miles
Clouds Few 2900 ft
Overcast 8000 ft
Dew Point 35.6 °F
Humidity 59%
Rainfall Not available.
Snow Depth Not available.
7:19 AM 5:26 PM
Waxing Crescent, 27% visible
METAR KRNT 130453Z AUTO 13003KT 10SM FEW029 OVC080 11/07 A3017 RMK AO2 SLP223 T01110072

10-Day Weather Forecast

Almanac

Astronomy

Feb. 12, 2016 Rise Set
Actual Time
Civil Twilight
Nautical Twilight
Astronomical Twilight
Moon
Length of Visible Light
Length of Day
Tomorrow will be .
, % of the Moon is Illuminated

Today's Extremes

State Highs State Lows

Community

WunderPhotos

Upload Photos

1,892,500 photos uploaded!

WunderBlog® & News

Nearby

Air Quality

  Air Quality AQ Index Pollutant
Not available.

Snow Depth

Station Depth Elevation

Earthquake Activity

City Distance Mag. Time & Date
Minimum magnitude displayed is 2.5.

Coastal Water Temperatures

Place Temperature

Stations

Nearby Weather Stations

Station Location Temp. Windchill Dew Point Humidity Wind Precip. Elev Updated Type
                   

Watches & Warnings

There are currently no watches in effect.